logo
Rechercher aéroport 
image banner adimage banner adimage banner ad
image banner ad

EHKN - K12-C (Oil Platform)

Situé à , Netherlands

ICAO - , IATA -

Données fournies par Airmate  

Information générale

Coordonnées: N53°27'30" E3°54'16"
Élévation : feet MSL.
 
Voir autres Aéroports à Noord-Holland

Données opérationnelles

Special qualification required
Heure actuelle UTC:
Heure actuelle locale:
Météo à : EHKV - K14-Fa-1C (Oil Platform) ( 28 km )
METAR: EHKV 232125Z AUTO 33017KT 9999 BKN020 OVC024 16/13 Q1020
Voir NOTAMs / SUP AIP / TFR affectant cet aéroport [VIEW]
Fréquences de communication: [VIEW]

Pistes:

Coordonnées de l'aéroport

Adresse: Netherlands

Vue satellite de EHKN